Time;durP1;ratioP1;P1;durP2;ratioP2;P2;SDS_P1;SDS_P2;PMS_P1;PMS_P2;Temp;Humidity;BMP_temperature;BMP_pressure;BME280_temperature;BME280_humidity;BME280_pressure;Samples;Min_cycle;Max_cycle;Signal;HPM_P1;HPM_P2
2021/05/02 00:00:47;;;;;;;11.23;5.45;;;;;;;;;;5065950;28;20193;-85
2021/05/02 00:03:13;;;;;;;14.35;5.25;;;;;;;;;;5066008;28;20442;-84
2021/05/02 00:05:39;;;;;;;12.00;5.07;;;;;;;;;;5049251;28;20134;-84
2021/05/02 00:08:06;;;;;;;10.10;4.88;;;;;;;;;;5066071;28;20045;-82
2021/05/02 00:10:32;;;;;;;14.57;5.43;;;;;;;;;;5049350;28;20148;-85
2021/05/02 00:12:59;;;;;;;17.63;5.38;;;;;;;;;;5065743;28;20130;-85
2021/05/02 00:15:27;;;;;;;14.52;5.40;;;;;;;;;;5064946;28;20532;-85
2021/05/02 00:17:53;;;;;;;10.10;4.43;;;;;;;;;;5049420;28;20409;-85
2021/05/02 00:20:20;;;;;;;14.25;5.10;;;;;;;;;;5049029;28;20049;-85
2021/05/02 00:22:48;;;;;;;16.08;5.03;;;;;;;;;;5033529;28;20334;-84
2021/05/02 00:25:15;;;;;;;10.35;4.65;;;;;;;;;;5048756;28;20470;-84
2021/05/02 00:27:41;;;;;;;12.13;4.60;;;;;;;;;;5065294;28;20052;-85
2021/05/02 00:30:08;;;;;;;11.98;4.90;;;;;;;;;;5064963;28;20144;-85
2021/05/02 00:32:34;;;;;;;12.50;4.90;;;;;;;;;;5065337;28;20040;-84
2021/05/02 00:35:00;;;;;;;14.63;5.05;;;;;;;;;;5048606;28;20042;-84
2021/05/02 00:37:26;;;;;;;12.23;4.70;;;;;;;;;;5048281;28;20088;-84
2021/05/02 00:39:52;;;;;;;11.25;4.25;;;;;;;;;;5048777;28;20526;-85
2021/05/02 00:42:22;;;;;;;13.02;4.40;;;;;;;;;;5048678;28;20053;-84
2021/05/02 00:44:52;;;;;;;13.82;5.13;;;;;;;;;;5048403;28;20092;-84
2021/05/02 00:47:19;;;;;;;9.38;4.13;;;;;;;;;;5064895;28;20033;-84
2021/05/02 00:49:49;;;;;;;11.38;4.75;;;;;;;;;;5064860;28;20042;-84
2021/05/02 00:52:17;;;;;;;12.63;5.07;;;;;;;;;;5064637;28;20037;-84
2021/05/02 00:54:47;;;;;;;10.55;4.15;;;;;;;;;;5064499;28;20049;-84
2021/05/02 00:57:18;;;;;;;12.93;4.68;;;;;;;;;;5048318;28;20048;-85
2021/05/02 01:00:02;;;;;;;14.40;5.10;;;;;;;;;;5032904;28;20108;-84
2021/05/02 01:02:30;;;;;;;11.93;5.63;;;;;;;;;;5064869;28;20029;-84
2021/05/02 01:04:59;;;;;;;11.98;4.45;;;;;;;;;;5064562;28;20046;-84
2021/05/02 01:07:29;;;;;;;13.60;5.22;;;;;;;;;;5031235;28;20045;-83
2021/05/02 01:09:57;;;;;;;13.45;5.03;;;;;;;;;;5064815;28;20392;-83
2021/05/02 01:12:23;;;;;;;14.00;5.32;;;;;;;;;;5064815;28;20041;-83
2021/05/02 01:14:53;;;;;;;18.95;5.93;;;;;;;;;;5047910;28;20033;-83
2021/05/02 01:17:19;;;;;;;16.55;4.75;;;;;;;;;;5064434;28;20477;-83
2021/05/02 01:19:45;;;;;;;22.92;6.00;;;;;;;;;;5064525;28;20051;-83
2021/05/02 01:22:13;;;;;;;13.10;5.05;;;;;;;;;;5064566;28;20087;-83
2021/05/02 01:24:41;;;;;;;12.27;4.55;;;;;;;;;;5064140;28;20045;-83
2021/05/02 01:27:08;;;;;;;12.05;4.97;;;;;;;;;;5047499;28;20071;-83
2021/05/02 01:29:34;;;;;;;16.98;5.20;;;;;;;;;;5064221;28;20103;-83
2021/05/02 01:32:00;;;;;;;11.75;5.25;;;;;;;;;;5064348;28;20528;-83
2021/05/02 01:34:26;;;;;;;11.60;5.30;;;;;;;;;;5064420;28;20060;-82
2021/05/02 01:36:53;;;;;;;14.55;5.30;;;;;;;;;;5032424;28;20039;-84
2021/05/02 01:39:19;;;;;;;18.05;5.97;;;;;;;;;;5032182;28;20179;-84
2021/05/02 01:41:45;;;;;;;14.90;5.43;;;;;;;;;;5063539;28;20041;-85
2021/05/02 01:44:11;;;;;;;19.00;5.38;;;;;;;;;;5064076;28;20041;-86
2021/05/02 01:46:38;;;;;;;17.45;5.70;;;;;;;;;;5064111;28;20040;-84
2021/05/02 01:49:04;;;;;;;16.88;5.03;;;;;;;;;;5064135;28;20064;-85
2021/05/02 01:51:30;;;;;;;12.52;5.65;;;;;;;;;;5064030;28;20037;-85
2021/05/02 01:53:56;;;;;;;17.52;6.00;;;;;;;;;;5064120;28;20048;-84
2021/05/02 01:56:24;;;;;;;14.18;5.15;;;;;;;;;;5032279;28;20089;-85
2021/05/02 01:58:50;;;;;;;19.42;5.57;;;;;;;;;;5031034;28;20057;-84
2021/05/02 02:01:17;;;;;;;13.50;5.28;;;;;;;;;;5064066;28;20466;-84
2021/05/02 02:03:43;;;;;;;14.52;4.80;;;;;;;;;;5047257;28;20448;-84
2021/05/02 02:06:10;;;;;;;10.32;4.70;;;;;;;;;;5063909;28;20073;-85
2021/05/02 02:08:36;;;;;;;15.35;4.70;;;;;;;;;;5031920;28;20044;-84
2021/05/02 02:11:02;;;;;;;15.70;5.72;;;;;;;;;;5031824;28;20044;-85
2021/05/02 02:13:28;;;;;;;12.88;5.18;;;;;;;;;;5032078;28;20151;-83
2021/05/02 02:15:54;;;;;;;17.55;6.05;;;;;;;;;;5047336;28;20095;-84
2021/05/02 02:18:20;;;;;;;12.20;5.22;;;;;;;;;;5063802;28;20065;-84
2021/05/02 02:20:47;;;;;;;12.60;5.65;;;;;;;;;;5031889;28;20400;-85
2021/05/02 02:23:16;;;;;;;13.63;5.75;;;;;;;;;;5047130;28;20044;-83
2021/05/02 02:25:42;;;;;;;12.63;5.43;;;;;;;;;;5046985;28;20037;-84
2021/05/02 02:28:10;;;;;;;12.48;5.20;;;;;;;;;;5063776;28;20114;-83
2021/05/02 02:30:36;;;;;;;13.27;5.45;;;;;;;;;;5063615;28;20037;-83
2021/05/02 02:33:02;;;;;;;13.07;4.75;;;;;;;;;;5063804;28;20388;-83
2021/05/02 02:35:28;;;;;;;11.05;4.93;;;;;;;;;;5047331;28;20493;-84
2021/05/02 02:37:55;;;;;;;17.05;6.15;;;;;;;;;;5063648;28;20046;-83
2021/05/02 02:40:21;;;;;;;14.40;5.60;;;;;;;;;;5063443;28;20120;-83
2021/05/02 02:42:47;;;;;;;12.27;4.88;;;;;;;;;;5031711;28;20095;-84
2021/05/02 02:45:14;;;;;;;10.43;4.25;;;;;;;;;;5063605;28;20397;-83
2021/05/02 02:47:49;;;;;;;15.15;4.60;;;;;;;;;;5063463;28;20073;-84
2021/05/02 02:50:17;;;;;;;9.70;5.10;;;;;;;;;;5046814;28;20069;-83
2021/05/02 02:52:43;;;;;;;10.55;4.15;;;;;;;;;;5047436;28;20412;-84
2021/05/02 02:55:10;;;;;;;11.40;4.43;;;;;;;;;;5067364;28;20043;-84
2021/05/02 02:57:43;;;;;;;10.43;4.88;;;;;;;;;;5050423;28;20213;-85
2021/05/02 03:00:09;;;;;;;10.98;4.60;;;;;;;;;;5066974;28;20121;-85
2021/05/02 03:02:35;;;;;;;11.73;4.47;;;;;;;;;;5050518;28;20038;-85
2021/05/02 03:05:01;;;;;;;11.52;3.90;;;;;;;;;;5067084;28;20539;-85
2021/05/02 03:07:27;;;;;;;8.50;4.15;;;;;;;;;;5050390;28;20059;-86
2021/05/02 03:09:53;;;;;;;8.63;3.67;;;;;;;;;;5050413;28;20048;-86
2021/05/02 03:12:21;;;;;;;10.70;3.58;;;;;;;;;;5050395;28;20449;-86
2021/05/02 03:14:51;;;;;;;8.70;3.03;;;;;;;;;;5066780;28;20033;-86
2021/05/02 03:17:29;;;;;;;7.38;2.88;;;;;;;;;;5066696;28;20039;-86
2021/05/02 03:19:58;;;;;;;8.68;3.17;;;;;;;;;;5066901;28;20041;-86
2021/05/02 03:22:40;;;;;;;7.57;3.08;;;;;;;;;;5066684;28;20037;-85
2021/05/02 03:25:07;;;;;;;7.40;2.60;;;;;;;;;;5066732;28;20563;-85
2021/05/02 03:27:40;;;;;;;7.35;2.60;;;;;;;;;;5034630;28;20044;-86
2021/05/02 03:30:07;;;;;;;4.20;2.17;;;;;;;;;;5066444;28;20111;-85
2021/05/02 03:32:35;;;;;;;7.28;2.63;;;;;;;;;;5066126;28;20041;-85
2021/05/02 03:35:01;;;;;;;7.85;2.40;;;;;;;;;;5066034;28;20046;-86
2021/05/02 03:37:28;;;;;;;6.57;2.00;;;;;;;;;;5066273;28;20038;-85
2021/05/02 03:39:54;;;;;;;5.93;2.88;;;;;;;;;;5049814;28;20064;-85
2021/05/02 03:42:20;;;;;;;7.00;1.92;;;;;;;;;;5066428;28;20049;-84
2021/05/02 03:44:46;;;;;;;5.40;1.88;;;;;;;;;;5066283;28;20033;-85
2021/05/02 03:47:12;;;;;;;6.45;2.03;;;;;;;;;;5049570;28;20056;-86
2021/05/02 03:49:39;;;;;;;4.15;1.90;;;;;;;;;;5066118;28;20041;-86
2021/05/02 03:52:05;;;;;;;6.03;1.83;;;;;;;;;;5049567;28;20041;-86
2021/05/02 03:54:31;;;;;;;8.48;2.00;;;;;;;;;;5034322;28;20392;-86
2021/05/02 03:56:57;;;;;;;8.32;1.90;;;;;;;;;;5049694;28;20255;-85
2021/05/02 03:59:25;;;;;;;4.90;1.75;;;;;;;;;;5049347;28;20049;-85
2021/05/02 04:01:55;;;;;;;4.03;1.70;;;;;;;;;;5034069;28;20091;-85
2021/05/02 04:04:31;;;;;;;6.18;1.70;;;;;;;;;;5065241;28;20276;-85
2021/05/02 04:07:00;;;;;;;5.38;2.10;;;;;;;;;;5049343;28;20431;-84
2021/05/02 04:09:26;;;;;;;8.82;1.83;;;;;;;;;;5049268;28;20087;-84
2021/05/02 04:11:53;;;;;;;4.65;1.90;;;;;;;;;;5049139;28;20045;-83
2021/05/02 04:14:19;;;;;;;9.52;1.60;;;;;;;;;;5065634;28;20041;-82
2021/05/02 04:16:53;;;;;;;5.90;1.63;;;;;;;;;;5065527;28;20500;-83
2021/05/02 04:19:19;;;;;;;5.40;1.85;;;;;;;;;;5065599;28;20125;-83
2021/05/02 04:21:46;;;;;;;2.70;1.50;;;;;;;;;;5033687;28;20108;-83
2021/05/02 04:24:12;;;;;;;1.90;1.50;;;;;;;;;;5065454;28;20045;-83
2021/05/02 04:26:41;;;;;;;4.45;1.67;;;;;;;;;;5065278;28;20596;-84
2021/05/02 04:29:07;;;;;;;5.15;1.48;;;;;;;;;;5065287;28;20088;-84
2021/05/02 04:31:33;;;;;;;6.07;1.70;;;;;;;;;;5048711;28;20520;-84
2021/05/02 04:33:59;;;;;;;8.77;1.63;;;;;;;;;;5065432;28;20049;-84
2021/05/02 04:36:25;;;;;;;5.13;1.50;;;;;;;;;;5065215;28;20492;-83
2021/05/02 04:38:51;;;;;;;4.20;1.42;;;;;;;;;;5065114;28;20062;-84
2021/05/02 04:41:17;;;;;;;6.35;1.60;;;;;;;;;;5031848;28;20049;-84
2021/05/02 04:43:43;;;;;;;6.82;1.77;;;;;;;;;;5065096;28;20481;-85
2021/05/02 04:46:11;;;;;;;3.63;1.60;;;;;;;;;;5033151;28;20033;-85
2021/05/02 04:48:39;;;;;;;6.65;2.08;;;;;;;;;;5064498;28;20041;-83
2021/05/02 04:51:05;;;;;;;4.35;1.75;;;;;;;;;;5064845;28;20424;-84
2021/05/02 04:53:31;;;;;;;4.85;1.65;;;;;;;;;;5064994;28;20481;-82
2021/05/02 04:55:57;;;;;;;4.38;1.77;;;;;;;;;;5032781;28;20037;-83
2021/05/02 04:58:23;;;;;;;3.72;1.70;;;;;;;;;;5064932;28;20042;-83
2021/05/02 05:00:51;;;;;;;4.47;1.83;;;;;;;;;;5064613;28;20488;-85
2021/05/02 05:03:17;;;;;;;5.90;1.90;;;;;;;;;;5064763;28;20041;-85
2021/05/02 05:05:43;;;;;;;4.47;1.92;;;;;;;;;;5048003;28;20041;-84
2021/05/02 05:08:10;;;;;;;4.05;1.80;;;;;;;;;;5064490;28;20037;-84
2021/05/02 05:10:36;;;;;;;5.78;1.83;;;;;;;;;;5064463;28;20037;-84
2021/05/02 05:13:02;;;;;;;6.45;1.90;;;;;;;;;;5064760;28;20057;-85
2021/05/02 05:15:28;;;;;;;6.32;2.42;;;;;;;;;;5064442;28;20120;-84
2021/05/02 05:17:54;;;;;;;5.07;2.08;;;;;;;;;;5047070;28;20033;-84
2021/05/02 05:20:20;;;;;;;7.82;2.25;;;;;;;;;;5064433;28;20042;-84
2021/05/02 05:22:46;;;;;;;5.20;1.85;;;;;;;;;;5047782;28;20481;-84
2021/05/02 05:25:12;;;;;;;5.60;2.35;;;;;;;;;;5047707;28;20076;-82
2021/05/02 05:27:38;;;;;;;5.82;2.28;;;;;;;;;;5064304;28;20044;-82
2021/05/02 05:30:05;;;;;;;3.97;2.00;;;;;;;;;;5032385;28;20048;-84
2021/05/02 05:32:31;;;;;;;4.68;2.20;;;;;;;;;;5064391;28;20045;-84
2021/05/02 05:34:57;;;;;;;5.90;2.22;;;;;;;;;;5047676;28;20048;-84
2021/05/02 05:37:23;;;;;;;4.38;2.20;;;;;;;;;;5047365;28;20037;-83
2021/05/02 05:39:49;;;;;;;8.63;4.93;;;;;;;;;;5032305;28;20057;-84
2021/05/02 05:42:15;;;;;;;4.07;2.40;;;;;;;;;;5064187;28;20038;-82
2021/05/02 05:44:41;;;;;;;4.80;2.15;;;;;;;;;;5064146;28;20049;-82
2021/05/02 05:47:08;;;;;;;5.57;2.40;;;;;;;;;;5064075;28;20060;-85
2021/05/02 05:49:36;;;;;;;5.82;2.33;;;;;;;;;;5063960;28;20038;-85
2021/05/02 05:52:02;;;;;;;4.55;2.67;;;;;;;;;;5047178;28;20049;-84
2021/05/02 05:54:29;;;;;;;4.82;1.90;;;;;;;;;;5064081;28;20492;-86
2021/05/02 05:56:54;;;;;;;3.63;2.35;;;;;;;;;;5047647;28;20049;-84
2021/05/02 05:59:21;;;;;;;4.60;2.22;;;;;;;;;;5032101;28;20045;-85
2021/05/02 06:01:49;;;;;;;5.70;2.42;;;;;;;;;;5047213;28;20096;-85
2021/05/02 06:04:15;;;;;;;6.10;2.58;;;;;;;;;;5047303;28;20370;-84
2021/05/02 06:06:41;;;;;;;3.80;2.17;;;;;;;;;;5063736;28;20044;-84
2021/05/02 06:09:08;;;;;;;4.95;2.50;;;;;;;;;;5063878;28;20041;-87
2021/05/02 06:11:34;;;;;;;6.22;2.30;;;;;;;;;;5032224;28;20092;-87
2021/05/02 06:14:00;;;;;;;5.10;1.98;;;;;;;;;;5047467;28;20096;-85
2021/05/02 06:16:27;;;;;;;4.85;2.40;;;;;;;;;;5063827;28;20120;-85
2021/05/02 06:18:57;;;;;;;5.47;1.95;;;;;;;;;;5063738;28;20048;-85
2021/05/02 06:21:23;;;;;;;7.93;2.22;;;;;;;;;;5031827;28;20063;-84
2021/05/02 06:23:49;;;;;;;6.13;2.20;;;;;;;;;;5047340;28;20045;-84
2021/05/02 06:26:16;;;;;;;7.43;2.15;;;;;;;;;;5040937;28;20040;-84
2021/05/02 06:28:42;;;;;;;4.05;2.40;;;;;;;;;;5051860;28;20480;-83
2021/05/02 06:31:09;;;;;;;7.93;2.80;;;;;;;;;;5052841;28;20086;-82
2021/05/02 06:33:36;;;;;;;4.05;2.30;;;;;;;;;;5053635;28;20059;-83
2021/05/02 06:36:02;;;;;;;6.13;2.65;;;;;;;;;;5038193;28;20396;-83
2021/05/02 06:38:28;;;;;;;7.85;2.67;;;;;;;;;;5055343;28;20132;-83
2021/05/02 06:40:54;;;;;;;4.93;1.77;;;;;;;;;;5037711;28;20041;-83
2021/05/02 06:43:20;;;;;;;4.53;2.20;;;;;;;;;;5037869;28;20053;-84
2021/05/02 06:45:47;;;;;;;6.13;1.80;;;;;;;;;;5054095;28;20033;-83
2021/05/02 06:48:13;;;;;;;2.65;1.85;;;;;;;;;;5053980;28;20065;-84
2021/05/02 06:50:39;;;;;;;3.78;1.80;;;;;;;;;;5037349;28;20052;-83
2021/05/02 06:53:05;;;;;;;2.50;1.60;;;;;;;;;;5054247;28;20102;-83
2021/05/02 06:55:31;;;;;;;2.45;1.50;;;;;;;;;;5055124;28;20041;-83
2021/05/02 06:57:59;;;;;;;5.60;1.50;;;;;;;;;;5053987;28;20067;-84
2021/05/02 07:00:26;;;;;;;1.35;1.15;;;;;;;;;;5053841;28;20124;-84
2021/05/02 07:02:55;;;;;;;2.63;1.40;;;;;;;;;;5053829;28;20049;-83
2021/05/02 07:05:21;;;;;;;2.80;1.30;;;;;;;;;;5053814;28;20036;-84
2021/05/02 07:07:47;;;;;;;1.95;1.20;;;;;;;;;;5053741;28;20473;-83
2021/05/02 07:10:14;;;;;;;2.53;1.50;;;;;;;;;;5053709;28;20041;-83
2021/05/02 07:12:40;;;;;;;1.73;1.50;;;;;;;;;;5054853;28;20045;-84
2021/05/02 07:15:06;;;;;;;3.83;1.40;;;;;;;;;;5053776;28;20061;-84
2021/05/02 07:17:32;;;;;;;1.90;1.58;;;;;;;;;;5053395;28;20039;-82
2021/05/02 07:19:59;;;;;;;1.95;1.50;;;;;;;;;;5037092;28;20120;-83
2021/05/02 07:22:27;;;;;;;3.42;1.52;;;;;;;;;;5053741;28;20082;-83
2021/05/02 07:24:53;;;;;;;2.92;1.70;;;;;;;;;;5037459;28;20044;-82
2021/05/02 07:27:19;;;;;;;4.03;1.90;;;;;;;;;;5053367;28;20037;-82
2021/05/02 07:29:45;;;;;;;4.28;1.70;;;;;;;;;;5053217;28;20037;-81
2021/05/02 07:32:11;;;;;;;3.08;1.80;;;;;;;;;;5053053;28;20166;-80
2021/05/02 07:34:37;;;;;;;4.07;1.60;;;;;;;;;;5054401;28;20111;-82
2021/05/02 07:37:03;;;;;;;2.40;1.35;;;;;;;;;;5054117;28;20037;-81
2021/05/02 07:39:29;;;;;;;2.92;1.40;;;;;;;;;;5052974;28;20519;-81
2021/05/02 07:41:56;;;;;;;2.88;1.33;;;;;;;;;;5048515;28;20388;-81
2021/05/02 07:44:22;;;;;;;4.40;1.70;;;;;;;;;;5044676;28;20037;-81
2021/05/02 07:46:48;;;;;;;3.35;2.08;;;;;;;;;;5038267;28;20501;-83
2021/05/02 07:49:14;;;;;;;2.13;1.50;;;;;;;;;;5049560;28;20072;-85
2021/05/02 07:51:40;;;;;;;3.50;1.70;;;;;;;;;;5032895;28;20041;-85
2021/05/02 07:54:06;;;;;;;2.70;1.40;;;;;;;;;;5049466;28;20038;-84
2021/05/02 07:56:32;;;;;;;6.15;1.65;;;;;;;;;;5033872;28;20040;-83
2021/05/02 07:58:58;;;;;;;1.75;1.20;;;;;;;;;;5049137;28;20451;-83
2021/05/02 08:01:24;;;;;;;3.00;1.40;;;;;;;;;;5041045;28;20072;-86
2021/05/02 08:03:52;;;;;;;2.80;1.52;;;;;;;;;;5053785;28;20063;-84
2021/05/02 08:06:18;;;;;;;7.05;2.10;;;;;;;;;;5052386;28;20186;-84
2021/05/02 08:08:44;;;;;;;2.97;1.63;;;;;;;;;;5053636;28;20129;-82
2021/05/02 08:11:10;;;;;;;2.85;1.80;;;;;;;;;;5053743;28;20101;-82
2021/05/02 08:13:36;;;;;;;4.65;1.92;;;;;;;;;;5051449;28;20120;-81
2021/05/02 08:16:02;;;;;;;5.10;1.83;;;;;;;;;;5053541;28;20107;-83
2021/05/02 08:18:28;;;;;;;3.63;1.92;;;;;;;;;;5052273;28;20037;-83
2021/05/02 08:20:54;;;;;;;4.03;1.95;;;;;;;;;;5053381;28;20452;-82
2021/05/02 08:23:20;;;;;;;3.78;1.77;;;;;;;;;;5053386;28;20045;-83
2021/05/02 08:25:46;;;;;;;3.78;1.92;;;;;;;;;;5050951;28;20114;-82
2021/05/02 08:28:12;;;;;;;4.50;2.08;;;;;;;;;;5052662;28;20143;-82
2021/05/02 08:30:38;;;;;;;3.08;1.65;;;;;;;;;;5035774;28;20090;-82
2021/05/02 08:33:05;;;;;;;3.67;1.58;;;;;;;;;;5053200;28;20488;-82
2021/05/02 08:35:31;;;;;;;5.97;1.88;;;;;;;;;;5053091;28;20036;-82
2021/05/02 08:37:57;;;;;;;7.32;2.22;;;;;;;;;;5052775;28;20045;-82
2021/05/02 08:40:23;;;;;;;3.95;1.60;;;;;;;;;;5035351;28;20051;-82
2021/05/02 08:42:49;;;;;;;4.65;1.70;;;;;;;;;;5052854;28;20392;-82
2021/05/02 08:45:15;;;;;;;7.80;1.70;;;;;;;;;;5051843;28;20052;-82
2021/05/02 08:47:41;;;;;;;3.88;1.50;;;;;;;;;;5052928;28;20044;-82
2021/05/02 08:50:08;;;;;;;8.50;1.75;;;;;;;;;;5052789;28;20041;-83
2021/05/02 08:52:35;;;;;;;2.22;1.50;;;;;;;;;;5034956;28;20045;-82
2021/05/02 08:55:01;;;;;;;3.75;1.80;;;;;;;;;;5018761;28;20048;-82
2021/05/02 08:57:27;;;;;;;2.22;1.50;;;;;;;;;;5052611;28;20129;-83
2021/05/02 08:59:53;;;;;;;2.85;1.45;;;;;;;;;;5051610;28;20064;-82
2021/05/02 09:02:25;;;;;;;3.08;1.60;;;;;;;;;;5052735;28;20526;-82
2021/05/02 09:04:53;;;;;;;2.30;1.38;;;;;;;;;;5051529;28;20049;-82
2021/05/02 09:07:19;;;;;;;4.93;1.83;;;;;;;;;;5051488;28;20037;-82
2021/05/02 09:09:45;;;;;;;3.22;1.83;;;;;;;;;;5034917;28;20044;-82
2021/05/02 09:12:26;;;;;;;5.20;1.80;;;;;;;;;;5051570;28;20057;-83
2021/05/02 09:14:53;;;;;;;5.65;1.52;;;;;;;;;;5051277;28;20053;-83
2021/05/02 09:17:31;;;;;;;2.28;1.25;;;;;;;;;;5051358;28;20472;-82
2021/05/02 09:19:57;;;;;;;3.33;1.35;;;;;;;;;;5051542;28;20041;-83
2021/05/02 09:22:23;;;;;;;9.95;2.03;;;;;;;;;;5051208;28;20497;-82
2021/05/02 09:24:59;;;;;;;4.88;1.77;;;;;;;;;;5052371;28;20041;-82
2021/05/02 09:27:25;;;;;;;6.85;1.58;;;;;;;;;;5052307;28;20111;-82
2021/05/02 09:29:51;;;;;;;4.60;1.70;;;;;;;;;;5051071;28;20045;-82
2021/05/02 09:32:18;;;;;;;4.50;1.50;;;;;;;;;;5051239;28;20138;-82
2021/05/02 09:34:54;;;;;;;4.45;1.50;;;;;;;;;;5051030;28;20064;-83
2021/05/02 09:37:23;;;;;;;3.92;1.60;;;;;;;;;;5034288;28;20537;-83
2021/05/02 09:39:50;;;;;;;2.92;1.48;;;;;;;;;;5051042;28;20476;-83
2021/05/02 09:42:19;;;;;;;2.35;1.33;;;;;;;;;;5052218;28;20139;-82
2021/05/02 09:44:49;;;;;;;2.85;1.45;;;;;;;;;;5050283;28;20116;-83
2021/05/02 09:47:21;;;;;;;3.67;1.30;;;;;;;;;;5033900;28;20514;-82
2021/05/02 09:50:06;;;;;;;5.63;1.33;;;;;;;;;;5052023;28;20235;-82
2021/05/02 09:52:39;;;;;;;2.92;1.30;;;;;;;;;;5050838;28;20591;-83
2021/05/02 09:55:19;;;;;;;2.22;1.23;;;;;;;;;;5050401;28;20037;-82
2021/05/02 09:57:55;;;;;;;3.95;1.67;;;;;;;;;;5050119;28;20044;-81
2021/05/02 10:00:40;;;;;;;2.47;1.95;;;;;;;;;;5034023;28;20048;-81
2021/05/02 10:03:08;;;;;;;3.03;1.50;;;;;;;;;;5049840;28;20040;-82
2021/05/02 10:05:36;;;;;;;3.55;1.50;;;;;;;;;;5050490;28;20037;-82
2021/05/02 10:08:02;;;;;;;4.57;1.33;;;;;;;;;;5050404;28;20033;-82
2021/05/02 10:10:28;;;;;;;1.98;1.33;;;;;;;;;;5051459;28;20032;-82
2021/05/02 10:12:54;;;;;;;3.85;1.33;;;;;;;;;;5050444;28;20124;-82
2021/05/02 10:15:21;;;;;;;5.20;1.65;;;;;;;;;;5050483;28;20037;-82
2021/05/02 10:17:51;;;;;;;3.33;1.27;;;;;;;;;;5050258;28;20037;-82
2021/05/02 10:20:19;;;;;;;5.57;1.80;;;;;;;;;;5050277;28;20119;-83
2021/05/02 10:22:45;;;;;;;3.90;1.65;;;;;;;;;;5050148;28;20061;-82
2021/05/02 10:25:11;;;;;;;4.10;1.63;;;;;;;;;;5050664;28;20041;-82
2021/05/02 10:27:41;;;;;;;5.93;1.58;;;;;;;;;;5033767;28;20473;-83
2021/05/02 10:30:09;;;;;;;3.28;1.63;;;;;;;;;;5047381;28;20090;-82
2021/05/02 10:32:35;;;;;;;4.80;1.52;;;;;;;;;;5051281;28;20396;-81
2021/05/02 10:35:08;;;;;;;4.38;1.85;;;;;;;;;;5050063;28;20037;-82
2021/05/02 10:37:36;;;;;;;2.95;1.45;;;;;;;;;;5049852;28;20106;-81
2021/05/02 10:40:31;;;;;;;5.00;2.55;;;;;;;;;;5050218;28;20049;-82
2021/05/02 10:43:03;;;;;;;2.42;1.80;;;;;;;;;;5046738;28;20056;-82
2021/05/02 10:48:07;;;;;;;5.65;1.75;;;;;;;;;;5051264;28;20045;-82
2021/05/02 10:50:34;;;;;;;5.50;1.73;;;;;;;;;;5051226;28;20069;-81
2021/05/02 10:53:04;;;;;;;5.93;1.85;;;;;;;;;;5033616;28;20481;-81
2021/05/02 10:55:49;;;;;;;5.82;1.50;;;;;;;;;;5050143;28;20037;-81
2021/05/02 10:58:22;;;;;;;3.55;1.77;;;;;;;;;;5049783;28;20041;-81
2021/05/02 11:00:49;;;;;;;4.25;1.55;;;;;;;;;;5049867;28;20076;-80
2021/05/02 11:03:34;;;;;;;5.50;2.25;;;;;;;;;;5049416;28;20033;-80
2021/05/02 11:06:01;;;;;;;5.53;1.60;;;;;;;;;;5049844;28;20045;-81
2021/05/02 11:08:46;;;;;;;3.95;1.80;;;;;;;;;;5033494;28;20056;-83
2021/05/02 11:11:31;;;;;;;5.03;2.00;;;;;;;;;;5049992;28;20037;-81
2021/05/02 11:14:09;;;;;;;5.15;1.70;;;;;;;;;;5049920;28;20086;-82
2021/05/02 11:16:36;;;;;;;3.95;1.70;;;;;;;;;;5054395;28;20500;-81
2021/05/02 11:19:02;;;;;;;6.25;1.58;;;;;;;;;;5053263;28;20047;-82
2021/05/02 11:21:55;;;;;;;4.40;1.95;;;;;;;;;;5053282;28;20063;-82
2021/05/02 11:24:22;;;;;;;6.38;1.63;;;;;;;;;;5053329;28;20052;-81
2021/05/02 11:27:07;;;;;;;3.70;1.63;;;;;;;;;;5037162;28;20048;-83
2021/05/02 11:29:37;;;;;;;2.47;1.63;;;;;;;;;;5038588;28;20033;-82
2021/05/02 11:32:03;;;;;;;2.88;1.50;;;;;;;;;;5037136;28;20400;-82
2021/05/02 11:34:48;;;;;;;5.10;1.90;;;;;;;;;;5053173;28;20033;-81
2021/05/02 11:37:33;;;;;;;2.60;1.30;;;;;;;;;;5053277;28;20041;-81
2021/05/02 11:39:59;;;;;;;3.40;1.40;;;;;;;;;;5053025;28;20091;-85
2021/05/02 11:42:25;;;;;;;4.82;1.42;;;;;;;;;;5052992;28;20041;-80
2021/05/02 11:44:53;;;;;;;3.63;1.63;;;;;;;;;;5052847;28;20127;-81
2021/05/02 11:47:19;;;;;;;1.52;1.20;;;;;;;;;;5052990;28;20117;-82
2021/05/02 11:49:45;;;;;;;4.10;1.30;;;;;;;;;;5053021;28;20037;-83
2021/05/02 11:52:11;;;;;;;2.58;1.50;;;;;;;;;;5052919;28;20048;-83
2021/05/02 11:54:47;;;;;;;2.40;1.08;;;;;;;;;;5052776;28;20107;-82
2021/05/02 11:57:13;;;;;;;3.10;1.40;;;;;;;;;;5054070;28;20418;-83
2021/05/02 11:59:48;;;;;;;5.38;1.60;;;;;;;;;;5052853;28;20055;-83
2021/05/02 12:02:14;;;;;;;1.77;1.10;;;;;;;;;;5052907;28;20116;-84
2021/05/02 12:04:40;;;;;;;4.57;1.42;;;;;;;;;;5051805;28;20155;-84
2021/05/02 12:07:08;;;;;;;3.03;1.50;;;;;;;;;;5035440;28;20492;-83
2021/05/02 12:09:34;;;;;;;2.72;1.40;;;;;;;;;;5053200;28;20090;-83
2021/05/02 12:12:00;;;;;;;3.13;1.35;;;;;;;;;;5052553;28;20064;-83
2021/05/02 12:14:30;;;;;;;2.03;1.15;;;;;;;;;;5035942;28;20041;-84
2021/05/02 12:16:58;;;;;;;2.38;1.17;;;;;;;;;;5052274;28;20033;-84
2021/05/02 12:19:25;;;;;;;1.70;1.20;;;;;;;;;;5036152;28;20541;-84
2021/05/02 12:21:52;;;;;;;1.60;1.25;;;;;;;;;;5053669;28;20037;-84
2021/05/02 12:24:19;;;;;;;3.03;1.13;;;;;;;;;;5034795;28;20466;-85
2021/05/02 12:26:49;;;;;;;3.63;1.20;;;;;;;;;;5034794;28;20041;-84
2021/05/02 12:29:18;;;;;;;3.10;1.15;;;;;;;;;;5035868;28;20143;-85
2021/05/02 12:31:50;;;;;;;5.22;1.27;;;;;;;;;;5035495;28;20072;-84
2021/05/02 12:34:16;;;;;;;1.35;1.13;;;;;;;;;;5053516;28;20147;-83
2021/05/02 12:36:42;;;;;;;2.30;1.20;;;;;;;;;;5052081;28;20476;-83
2021/05/02 12:39:09;;;;;;;2.08;1.33;;;;;;;;;;5051845;28;20175;-83
2021/05/02 12:41:36;;;;;;;2.10;1.20;;;;;;;;;;5051965;28;20123;-84
2021/05/02 12:44:21;;;;;;;1.90;1.30;;;;;;;;;;5018985;28;20381;-82
2021/05/02 12:46:51;;;;;;;3.47;1.30;;;;;;;;;;5035480;28;20048;-82
2021/05/02 12:49:18;;;;;;;2.95;1.30;;;;;;;;;;5035406;28;20037;-82
2021/05/02 12:51:46;;;;;;;3.03;1.25;;;;;;;;;;5052004;28;20392;-83
2021/05/02 12:54:13;;;;;;;3.53;1.40;;;;;;;;;;5035398;28;20037;-84
2021/05/02 12:56:40;;;;;;;2.65;1.20;;;;;;;;;;5052806;28;20040;-84
2021/05/02 12:59:41;;;;;;;2.28;1.30;;;;;;;;;;5051605;28;20495;-84
2021/05/02 13:02:16;;;;;;;3.08;1.20;;;;;;;;;;5040329;28;20057;-82
2021/05/02 13:04:45;;;;;;;2.47;1.20;;;;;;;;;;5035252;28;20040;-84
2021/05/02 13:07:13;;;;;;;1.23;1.00;;;;;;;;;;5052445;28;20037;-84
2021/05/02 13:09:43;;;;;;;1.45;1.00;;;;;;;;;;5051017;28;20052;-84
2021/05/02 13:12:10;;;;;;;1.67;1.20;;;;;;;;;;5034686;28;20124;-83
2021/05/02 13:14:36;;;;;;;2.63;1.13;;;;;;;;;;5051142;28;20033;-83
2021/05/02 13:17:08;;;;;;;1.88;1.25;;;;;;;;;;5034514;28;20049;-82
2021/05/02 13:19:35;;;;;;;1.40;1.00;;;;;;;;;;5051083;28;20045;-82
2021/05/02 13:22:20;;;;;;;3.10;1.10;;;;;;;;;;5052171;28;20040;-83
2021/05/02 13:25:14;;;;;;;2.42;1.20;;;;;;;;;;5052293;28;20033;-83
2021/05/02 13:27:42;;;;;;;2.92;1.27;;;;;;;;;;5051772;28;20044;-84
2021/05/02 13:30:15;;;;;;;4.18;1.33;;;;;;;;;;5034478;28;20091;-83
2021/05/02 13:33:00;;;;;;;1.30;1.00;;;;;;;;;;5017845;28;20091;-83
2021/05/02 13:35:27;;;;;;;2.17;1.33;;;;;;;;;;5034432;28;20051;-83
2021/05/02 13:37:53;;;;;;;2.08;1.30;;;;;;;;;;5049864;28;20404;-85
2021/05/02 13:40:19;;;;;;;3.30;1.23;;;;;;;;;;5034277;28;20040;-83
2021/05/02 13:42:45;;;;;;;4.75;1.30;;;;;;;;;;5034327;28;20037;-83
2021/05/02 13:45:12;;;;;;;3.80;1.42;;;;;;;;;;5050679;28;20395;-85
2021/05/02 13:47:38;;;;;;;1.92;1.20;;;;;;;;;;5034059;28;20492;-83
2021/05/02 13:50:05;;;;;;;3.33;1.40;;;;;;;;;;5034242;28;20087;-82
2021/05/02 13:52:31;;;;;;;1.67;1.20;;;;;;;;;;5018010;28;20097;-81
2021/05/02 13:54:59;;;;;;;1.13;0.98;;;;;;;;;;5050649;28;20085;-81
2021/05/02 13:57:26;;;;;;;1.67;1.10;;;;;;;;;;5051718;28;20033;-82
2021/05/02 13:59:52;;;;;;;1.90;1.13;;;;;;;;;;5050739;28;20045;-81
2021/05/02 14:02:18;;;;;;;3.47;0.85;;;;;;;;;;5050753;28;20037;-83
2021/05/02 14:04:44;;;;;;;2.60;1.40;;;;;;;;;;5050607;28;20037;-82
2021/05/02 14:07:10;;;;;;;2.65;1.30;;;;;;;;;;5050510;28;20036;-83
2021/05/02 14:09:40;;;;;;;3.45;1.10;;;;;;;;;;5050478;28;20099;-83
2021/05/02 14:12:06;;;;;;;1.98;1.13;;;;;;;;;;5050485;28;20456;-83
2021/05/02 14:14:32;;;;;;;1.52;1.10;;;;;;;;;;5050560;28;20078;-82
2021/05/02 14:16:58;;;;;;;2.45;0.90;;;;;;;;;;5050567;28;20033;-82
2021/05/02 14:19:24;;;;;;;2.13;1.20;;;;;;;;;;5051730;28;20076;-84
2021/05/02 14:21:50;;;;;;;1.98;1.10;;;;;;;;;;5034025;28;20116;-83
2021/05/02 14:24:16;;;;;;;2.47;0.98;;;;;;;;;;5050111;28;20063;-83
2021/05/02 14:26:42;;;;;;;2.47;1.20;;;;;;;;;;5050219;28;20472;-84
2021/05/02 14:29:08;;;;;;;2.42;1.23;;;;;;;;;;5051393;28;20041;-81
2021/05/02 14:31:34;;;;;;;2.25;1.38;;;;;;;;;;5050284;28;20037;-81
2021/05/02 14:34:08;;;;;;;2.22;1.30;;;;;;;;;;5050353;28;20040;-82
2021/05/02 14:36:34;;;;;;;2.45;1.20;;;;;;;;;;5050464;28;20044;-82
2021/05/02 14:39:00;;;;;;;1.35;1.25;;;;;;;;;;5051305;28;20053;-82
2021/05/02 14:41:26;;;;;;;2.03;1.02;;;;;;;;;;5033799;28;20044;-82
2021/05/02 14:43:52;;;;;;;2.83;1.40;;;;;;;;;;5050184;28;20033;-83
2021/05/02 14:46:18;;;;;;;3.42;1.50;;;;;;;;;;5050214;28;20037;-82
2021/05/02 14:48:44;;;;;;;2.15;1.10;;;;;;;;;;5051932;28;20087;-83